This is the latest recevied weather packets stored in our database for station/object WC0AA-WX. If no packets are shown the sender has not sent any weather packets the latest 10 day(s).
| Time | Temp. | Humidity | Pressure | Rain* | Wind** | Luminosity | Snow |
|---|---|---|---|---|---|---|---|
| 1777525240 | 7.22° C | 89% | 1018.8 hPa | 0 mm | - | - | - |
| 1777524038 | 7.22° C | 90% | 1018.8 hPa | 0 mm | - | - | - |
| 1777522235 | 7.22° C | 90% | 1019.1 hPa | 0 mm | - | - | - |
| 1777521634 | 7.78° C | 90% | 1019.1 hPa | 0 mm | - | - | - |
| 1777521033 | 7.78° C | 89% | 1019.1 hPa | 0 mm | - | - | - |
| 1777519831 | 8.33° C | 87% | 1019 hPa | 0 mm | - | - | - |
| 1777518629 | 8.33° C | 85% | 1018.8 hPa | 0 mm | - | - | - |
| 1777516826 | 9.44° C | 80% | 1018.5 hPa | 0 mm | - | - | - |
| 1777516225 | 10° C | 77% | 1018.5 hPa | 0 mm | - | - | - |
| 1777515023 | 10.56° C | 72% | 1018.4 hPa | 0 mm | - | - | - |
| 1777513820 | 11.67° C | 68% | 1018.2 hPa | 0 mm | - | - | - |
| 1777513220 | 12.22° C | 59% | 1018.2 hPa | 0 mm | - | - | - |
| 1777512619 | 13.33° C | 56% | 1018.1 hPa | 0 mm | - | - | - |
| 1777509012 | 15.56° C | 47% | 1017.9 hPa | 0 mm | - | - | - |
| 1777508411 | 15.56° C | 47% | 1017.9 hPa | 0 mm | - | - | - |
| 1777504806 | 16.67° C | 45% | 1017.9 hPa | 0 mm | - | - | - |
| 1777499998 | 18.33° C | 43% | 1017.9 hPa | 0 mm | - | - | - |
| 1777495792 | 17.78° C | 44% | 1018.9 hPa | 0 mm | - | - | - |
| 1777493989 | 18.33° C | 44% | 1019.5 hPa | 0 mm | - | - | - |
| 1777492186 | 18.33° C | 45% | 1019.7 hPa | 0 mm | - | - | - |
| 1777491585 | 17.78° C | 45% | 1019.7 hPa | 0 mm | - | - | - |
| 1777490384 | 17.22° C | 47% | 1020.1 hPa | 0 mm | - | - | - |
| 1777489783 | 17.22° C | 47% | 1020.3 hPa | 0 mm | - | - | - |
| 1777487980 | 17.22° C | 48% | 1020.5 hPa | 0 mm | - | - | - |
| 1777487379 | 17.22° C | 49% | 1020.8 hPa | 0 mm | - | - | - |
* Rain latest hour (hover to see other rain measurements)
** Current wind speed in m/s (hover to see current wind gust speed)